Time;durP1;ratioP1;P1;durP2;ratioP2;P2;SDS_P1;SDS_P2;PMS_P1;PMS_P2;Temp;Humidity;BMP_temperature;BMP_pressure;BME280_temperature;BME280_humidity;BME280_pressure;Samples;Min_cycle;Max_cycle;Signal;HPM_P1;HPM_P2
2022/07/30 00:00:57;;;;;;;6.10;3.10;;;17.30;99.90;;;;;;5070361;28;20471;-72
2022/07/30 00:03:23;;;;;;;5.43;3.53;;;17.30;99.90;;;;;;5071245;28;20411;-71
2022/07/30 00:05:48;;;;;;;6.53;3.42;;;17.30;99.90;;;;;;5071469;28;20924;-73
2022/07/30 00:08:14;;;;;;;7.23;3.80;;;17.30;99.90;;;;;;5071284;28;20400;-73
2022/07/30 00:10:40;;;;;;;7.53;3.50;;;17.30;99.90;;;;;;5072002;28;20438;-72
2022/07/30 00:13:06;;;;;;;6.50;3.80;;;17.20;99.90;;;;;;5071147;28;20399;-72
2022/07/30 00:15:32;;;;;;;8.20;4.18;;;17.20;99.90;;;;;;5071108;28;20392;-72
2022/07/30 00:17:58;;;;;;;6.60;4.37;;;17.10;99.90;;;;;;5081804;28;20945;-73
2022/07/30 00:20:23;;;;;;;8.38;3.85;;;17.10;99.90;;;;;;5072954;28;20404;-72
2022/07/30 00:22:49;;;;;;;7.38;3.90;;;17.10;99.90;;;;;;5071296;28;20789;-73
2022/07/30 00:25:17;;;;;;;6.27;3.80;;;17.00;99.90;;;;;;5070863;28;20475;-72
2022/07/30 00:27:43;;;;;;;7.03;3.85;;;17.00;99.90;;;;;;5071163;28;20400;-72
2022/07/30 00:30:09;;;;;;;7.70;4.10;;;17.00;99.90;;;;;;5070783;28;20762;-72
2022/07/30 00:32:35;;;;;;;6.57;3.58;;;17.00;99.90;;;;;;5070999;28;20450;-72
2022/07/30 00:35:00;;;;;;;6.40;3.90;;;17.00;99.90;;;;;;5071228;28;20443;-72
2022/07/30 00:37:26;;;;;;;7.18;3.90;;;16.90;99.90;;;;;;5069884;28;20834;-73
2022/07/30 00:39:52;;;;;;;6.67;3.87;;;16.90;99.90;;;;;;5070676;28;20423;-72
2022/07/30 00:42:24;;;;;;;7.13;3.83;;;16.90;99.90;;;;;;5070973;28;20396;-72
2022/07/30 00:44:51;;;;;;;6.88;3.67;;;16.90;99.90;;;;;;5084532;28;20405;-72
2022/07/30 00:47:17;;;;;;;6.72;4.15;;;16.80;99.90;;;;;;5076671;28;20415;-72
2022/07/30 00:49:42;;;;;;;8.10;4.07;;;16.90;99.90;;;;;;5070103;28;20774;-72
2022/07/30 00:52:08;;;;;;;7.40;3.83;;;16.80;99.90;;;;;;5069793;28;20406;-72
2022/07/30 00:54:34;;;;;;;7.97;4.18;;;16.80;99.90;;;;;;5088260;28;20401;-72
2022/07/30 00:56:59;;;;;;;8.23;4.95;;;16.80;99.90;;;;;;5089176;28;20414;-72
2022/07/30 00:59:27;;;;;;;8.27;4.72;;;16.70;99.90;;;;;;5088868;28;20918;-72
2022/07/30 01:01:53;;;;;;;9.00;4.90;;;16.70;99.90;;;;;;5089791;28;20394;-72
2022/07/30 01:04:19;;;;;;;9.38;4.88;;;16.70;99.90;;;;;;5088565;28;20409;-72
2022/07/30 01:06:45;;;;;;;8.70;4.90;;;16.60;99.90;;;;;;5089067;28;20394;-72
2022/07/30 01:09:11;;;;;;;8.25;4.97;;;16.60;99.90;;;;;;5086829;28;20456;-72
2022/07/30 01:11:38;;;;;;;10.57;5.05;;;16.60;99.90;;;;;;5078086;28;20753;-72
2022/07/30 01:14:05;;;;;;;6.55;4.70;;;16.60;99.90;;;;;;5086938;28;20409;-73
2022/07/30 01:16:32;;;;;;;7.43;4.90;;;16.60;99.90;;;;;;5076956;28;20794;-72
2022/07/30 01:21:50;;;;;;;8.82;4.75;;;16.50;99.90;;;;;;5068903;28;20404;-73
2022/07/30 01:24:32;;;;;;;7.80;4.53;;;16.50;99.90;;;;;;5068340;28;20399;-72
2022/07/30 01:26:59;;;;;;;9.13;4.83;;;16.50;99.90;;;;;;5065183;28;20402;-72
2022/07/30 01:29:27;;;;;;;9.18;4.88;;;16.50;99.90;;;;;;5069024;28;20770;-72
2022/07/30 01:31:58;;;;;;;7.28;4.82;;;16.50;99.90;;;;;;5068839;28;20974;-72
2022/07/30 01:34:27;;;;;;;6.68;4.07;;;16.40;99.90;;;;;;5069450;28;20461;-72
2022/07/30 01:36:55;;;;;;;7.03;4.32;;;16.40;99.90;;;;;;5069032;28;20423;-73
2022/07/30 01:39:21;;;;;;;6.25;4.05;;;16.40;99.90;;;;;;5068877;28;20767;-72
2022/07/30 01:41:49;;;;;;;6.97;4.20;;;16.40;99.90;;;;;;5069141;28;20404;-72
2022/07/30 01:44:17;;;;;;;7.68;4.40;;;16.30;99.90;;;;;;5068516;28;20951;-72
2022/07/30 01:46:43;;;;;;;7.22;4.70;;;16.30;99.90;;;;;;5068120;28;20403;-72
2022/07/30 01:49:10;;;;;;;10.23;5.37;;;16.30;99.90;;;;;;5082148;28;20465;-72
2022/07/30 01:51:37;;;;;;;8.50;5.70;;;16.30;99.90;;;;;;5081297;28;20456;-72
2022/07/30 01:54:08;;;;;;;10.05;6.22;;;16.20;99.90;;;;;;5078207;28;20491;-72
2022/07/30 01:56:34;;;;;;;11.25;5.55;;;16.20;99.90;;;;;;5069155;28;20872;-72
2022/07/30 01:59:03;;;;;;;7.83;5.27;;;16.20;99.90;;;;;;5068555;28;20451;-72
2022/07/30 02:01:29;;;;;;;8.82;5.57;;;16.20;99.90;;;;;;5081796;28;20400;-71
2022/07/30 02:03:55;;;;;;;8.15;5.35;;;16.20;99.90;;;;;;5082079;28;20473;-72
2022/07/30 02:06:29;;;;;;;8.05;5.68;;;16.10;99.90;;;;;;5087745;28;20402;-72
2022/07/30 02:08:58;;;;;;;8.32;5.88;;;16.10;99.90;;;;;;5088128;28;20457;-72
2022/07/30 02:14:18;;;;;;;8.43;5.25;;;16.00;99.90;;;;;;5087730;28;20522;-72
2022/07/30 02:16:49;;;;;;;7.70;4.93;;;16.00;99.90;;;;;;5088255;28;20508;-72
2022/07/30 02:19:17;;;;;;;9.07;6.00;;;16.00;99.90;;;;;;5087192;28;20402;-72
2022/07/30 02:21:57;;;;;;;8.45;5.63;;;16.00;99.90;;;;;;5088275;28;20418;-72
2022/07/30 02:24:28;;;;;;;8.50;5.68;;;16.00;99.90;;;;;;5064589;28;20402;-72
2022/07/30 02:26:59;;;;;;;9.33;6.07;;;16.00;99.90;;;;;;5084687;28;20408;-72
2022/07/30 02:29:25;;;;;;;10.23;6.03;;;16.00;99.90;;;;;;5068110;28;20931;-72
2022/07/30 02:31:55;;;;;;;7.53;5.45;;;16.00;99.90;;;;;;5068174;28;20396;-72
2022/07/30 02:34:22;;;;;;;7.50;5.35;;;16.00;99.90;;;;;;5067626;28;20402;-72
2022/07/30 02:36:50;;;;;;;9.88;4.90;;;15.90;99.90;;;;;;5068143;28;20790;-72
2022/07/30 02:39:17;;;;;;;7.93;5.40;;;15.90;99.90;;;;;;5068403;28;20833;-72
2022/07/30 02:41:43;;;;;;;6.18;4.43;;;15.90;99.90;;;;;;5067353;28;20391;-72
2022/07/30 02:44:10;;;;;;;9.20;5.45;;;15.90;99.90;;;;;;5068515;28;20442;-71
2022/07/30 02:46:38;;;;;;;8.05;5.25;;;15.90;99.90;;;;;;5068770;28;20897;-72
2022/07/30 02:49:05;;;;;;;8.70;5.38;;;15.90;99.90;;;;;;5067929;28;20407;-72
2022/07/30 02:51:33;;;;;;;8.23;5.27;;;15.80;99.90;;;;;;5068531;28;20434;-72
2022/07/30 02:54:00;;;;;;;7.20;4.72;;;15.80;99.90;;;;;;5078670;28;20398;-71
2022/07/30 02:56:27;;;;;;;10.05;5.85;;;15.80;99.90;;;;;;5086808;28;20444;-72
2022/07/30 02:58:53;;;;;;;9.23;5.25;;;15.80;99.90;;;;;;5088033;28;20813;-72
2022/07/30 03:01:21;;;;;;;9.25;5.90;;;15.70;99.90;;;;;;5086754;28;20891;-72
2022/07/30 03:03:48;;;;;;;11.75;7.05;;;15.80;99.90;;;;;;5087843;28;20477;-72
2022/07/30 03:06:15;;;;;;;11.13;6.85;;;15.70;99.90;;;;;;5086943;28;20485;-72
2022/07/30 03:08:43;;;;;;;9.73;6.57;;;15.70;99.90;;;;;;5092010;28;20407;-72
2022/07/30 03:11:10;;;;;;;9.25;6.25;;;15.70;99.90;;;;;;5085406;28;20908;-72
2022/07/30 03:13:37;;;;;;;10.15;6.40;;;15.70;99.90;;;;;;5087875;28;20402;-72
2022/07/30 03:16:07;;;;;;;10.10;6.33;;;15.60;99.90;;;;;;5086596;28;20810;-72
2022/07/30 03:18:35;;;;;;;8.02;5.53;;;15.60;99.90;;;;;;5087726;28;20430;-72
2022/07/30 03:21:01;;;;;;;7.20;5.60;;;15.50;99.90;;;;;;5090290;28;20394;-72
2022/07/30 03:23:31;;;;;;;7.72;5.70;;;15.50;99.90;;;;;;5090967;28;20437;-72
2022/07/30 03:26:00;;;;;;;8.70;5.40;;;15.50;99.90;;;;;;5078686;28;20813;-72
2022/07/30 03:28:29;;;;;;;9.23;5.60;;;15.50;99.90;;;;;;5076487;28;20415;-72
2022/07/30 03:30:55;;;;;;;7.35;5.40;;;15.50;99.90;;;;;;5071623;28;20836;-72
2022/07/30 03:33:22;;;;;;;7.55;5.22;;;15.50;99.90;;;;;;5072438;28;20403;-72
2022/07/30 03:35:48;;;;;;;8.65;6.03;;;15.40;99.90;;;;;;5083751;28;21128;-72
2022/07/30 03:38:15;;;;;;;9.60;7.22;;;15.40;99.90;;;;;;5072148;28;20450;-72
2022/07/30 03:40:42;;;;;;;12.55;8.35;;;15.40;99.90;;;;;;5091380;28;20411;-71
2022/07/30 03:43:09;;;;;;;10.98;7.57;;;15.30;99.90;;;;;;5090728;28;20402;-72
2022/07/30 03:45:36;;;;;;;14.35;8.23;;;15.30;99.90;;;;;;5082904;28;20400;-72
2022/07/30 03:48:03;;;;;;;12.43;8.73;;;15.30;99.90;;;;;;5072801;28;20411;-72
2022/07/30 03:50:29;;;;;;;10.82;8.20;;;15.30;99.90;;;;;;5091434;28;20402;-72
2022/07/30 03:52:55;;;;;;;11.90;8.10;;;15.30;99.90;;;;;;5077245;28;20396;-72
2022/07/30 03:55:21;;;;;;;10.57;8.10;;;15.30;99.90;;;;;;5090840;28;20405;-72
2022/07/30 03:57:47;;;;;;;12.43;8.32;;;15.30;99.90;;;;;;5090836;28;20969;-72
2022/07/30 04:00:14;;;;;;;12.70;9.23;;;15.30;99.90;;;;;;5091060;28;20402;-72
2022/07/30 04:02:46;;;;;;;13.40;9.50;;;15.20;99.90;;;;;;5072458;28;20413;-72
2022/07/30 04:05:12;;;;;;;12.40;8.75;;;15.20;99.90;;;;;;5090196;28;21009;-72
2022/07/30 04:07:38;;;;;;;14.52;9.57;;;15.30;99.90;;;;;;5090145;28;20398;-72
2022/07/30 04:10:05;;;;;;;13.02;9.85;;;15.30;99.90;;;;;;5090505;28;20408;-71
2022/07/30 04:12:30;;;;;;;14.63;9.57;;;15.30;99.90;;;;;;5090369;28;20405;-72
2022/07/30 04:14:56;;;;;;;12.95;9.40;;;15.30;99.90;;;;;;5090011;28;20398;-72
2022/07/30 04:17:35;;;;;;;13.05;9.18;;;15.30;99.90;;;;;;5089528;28;20458;-72
2022/07/30 04:20:09;;;;;;;13.35;9.70;;;15.30;99.90;;;;;;5090166;28;20402;-72
2022/07/30 04:22:36;;;;;;;11.15;9.18;;;15.30;99.90;;;;;;5104613;28;20760;-72
2022/07/30 04:25:05;;;;;;;12.55;8.77;;;15.30;99.90;;;;;;5089922;28;20444;-72
2022/07/30 04:27:33;;;;;;;10.30;8.38;;;15.30;99.90;;;;;;5082685;28;20407;-72
2022/07/30 04:29:59;;;;;;;12.95;8.70;;;15.30;99.90;;;;;;5081766;28;20497;-72
2022/07/30 04:32:25;;;;;;;13.07;8.67;;;15.30;99.90;;;;;;5089974;28;20864;-72
2022/07/30 04:34:53;;;;;;;12.20;8.95;;;15.30;99.90;;;;;;5089044;28;20453;-73
2022/07/30 04:37:21;;;;;;;13.98;9.10;;;15.30;99.90;;;;;;5064004;28;20422;-72
2022/07/30 04:39:53;;;;;;;11.07;9.18;;;15.30;99.90;;;;;;5089140;28;20402;-72
2022/07/30 04:42:20;;;;;;;11.68;10.15;;;15.30;99.90;;;;;;5089298;28;20406;-72
2022/07/30 04:44:47;;;;;;;13.20;10.15;;;15.40;99.90;;;;;;5087465;28;20418;-73
2022/07/30 04:47:12;;;;;;;16.85;12.43;;;15.40;99.90;;;;;;5089570;28;20486;-72
2022/07/30 04:49:39;;;;;;;17.38;12.52;;;15.40;99.90;;;;;;5087705;28;20485;-72
2022/07/30 04:52:08;;;;;;;16.65;12.65;;;15.50;99.90;;;;;;5088733;28;20768;-72
2022/07/30 04:54:42;;;;;;;17.47;13.33;;;15.50;99.90;;;;;;5087439;28;20409;-73
2022/07/30 04:57:11;;;;;;;15.38;12.45;;;15.60;99.90;;;;;;5089212;28;20421;-72
2022/07/30 04:59:37;;;;;;;16.63;12.38;;;15.60;99.90;;;;;;5087493;28;20409;-72
2022/07/30 05:02:05;;;;;;;14.37;11.70;;;15.60;99.90;;;;;;5087739;28;21223;-72
2022/07/30 05:04:33;;;;;;;15.95;11.93;;;15.70;99.90;;;;;;5087733;28;20451;-72
2022/07/30 05:07:00;;;;;;;17.25;12.35;;;15.70;99.90;;;;;;5088948;28;20446;-72
2022/07/30 05:09:27;;;;;;;15.88;12.27;;;15.80;99.90;;;;;;5088652;28;20926;-72
2022/07/30 05:11:54;;;;;;;15.27;11.93;;;15.90;99.90;;;;;;5089717;28;20386;-72
2022/07/30 05:14:21;;;;;;;15.93;12.15;;;15.90;99.90;;;;;;5089028;28;20406;-72
2022/07/30 05:16:47;;;;;;;17.75;12.88;;;16.00;99.90;;;;;;5089381;28;20394;-72
2022/07/30 05:19:13;;;;;;;15.90;11.67;;;16.00;99.90;;;;;;5088187;28;20447;-72
2022/07/30 05:21:38;;;;;;;17.38;11.70;;;16.10;99.90;;;;;;5089103;28;20455;-72
2022/07/30 05:24:04;;;;;;;15.37;11.50;;;16.10;99.90;;;;;;5088494;28;20445;-72
2022/07/30 05:26:30;;;;;;;15.98;11.93;;;16.20;99.90;;;;;;5088849;28;20405;-72
2022/07/30 05:28:56;;;;;;;16.60;11.30;;;16.30;99.90;;;;;;5075250;28;20421;-72
2022/07/30 05:31:21;;;;;;;16.02;11.07;;;16.30;99.90;;;;;;5087237;28;20489;-72
2022/07/30 05:33:47;;;;;;;16.00;11.03;;;16.40;99.90;;;;;;5088780;28;20950;-72
2022/07/30 05:36:13;;;;;;;16.17;11.13;;;16.50;99.90;;;;;;5088838;28;20892;-72
2022/07/30 05:38:38;;;;;;;15.77;10.83;;;16.50;99.90;;;;;;5088847;28;20827;-71
2022/07/30 05:41:04;;;;;;;16.08;11.23;;;16.60;99.90;;;;;;5088078;28;21408;-72
2022/07/30 05:43:29;;;;;;;16.50;10.80;;;16.60;99.90;;;;;;5088154;28;20888;-72
2022/07/30 05:45:55;;;;;;;16.48;10.95;;;16.70;99.90;;;;;;5088650;28;20398;-72
2022/07/30 05:48:21;;;;;;;14.83;11.10;;;16.70;99.90;;;;;;5087012;28;20458;-72
2022/07/30 05:50:46;;;;;;;15.48;10.85;;;16.80;99.90;;;;;;5078620;28;20490;-72
2022/07/30 05:53:12;;;;;;;15.70;11.03;;;16.80;99.90;;;;;;5085669;28;20756;-72
2022/07/30 05:55:37;;;;;;;15.52;11.10;;;16.90;99.90;;;;;;5087223;28;20402;-72
2022/07/30 05:58:03;;;;;;;15.23;10.70;;;16.90;99.90;;;;;;5074488;28;20518;-72
2022/07/30 06:00:29;;;;;;;13.73;10.13;;;17.00;99.90;;;;;;5088348;28;20425;-72
2022/07/30 06:02:54;;;;;;;15.98;9.85;;;17.00;99.90;;;;;;5087531;28;20393;-72
2022/07/30 06:05:20;;;;;;;15.80;10.47;;;17.10;99.90;;;;;;5077334;28;20403;-71
2022/07/30 06:07:46;;;;;;;14.00;10.32;;;17.20;99.90;;;;;;5084271;28;20755;-72
2022/07/30 06:10:12;;;;;;;14.63;9.50;;;17.30;99.90;;;;;;5087865;28;20472;-72
2022/07/30 06:12:38;;;;;;;14.85;9.68;;;17.30;99.90;;;;;;5070504;28;20404;-73
2022/07/30 06:15:04;;;;;;;14.60;9.60;;;17.40;99.90;;;;;;5078255;28;20390;-71
2022/07/30 06:17:30;;;;;;;15.25;10.38;;;17.40;99.90;;;;;;5085406;28;20779;-71
2022/07/30 06:19:58;;;;;;;15.23;10.90;;;17.50;99.90;;;;;;5087369;28;20477;-72
2022/07/30 06:22:24;;;;;;;17.02;10.80;;;17.60;99.90;;;;;;5085103;28;20468;-71
2022/07/30 06:24:50;;;;;;;18.70;9.57;;;17.70;99.90;;;;;;5086641;28;20405;-72
2022/07/30 06:27:15;;;;;;;12.90;9.25;;;17.70;99.90;;;;;;5081640;28;20399;-71
2022/07/30 06:29:41;;;;;;;15.03;9.53;;;17.80;99.90;;;;;;5079356;28;20401;-72
2022/07/30 06:32:07;;;;;;;16.08;8.77;;;17.90;99.90;;;;;;5087696;28;20485;-71
2022/07/30 06:34:32;;;;;;;13.13;8.70;;;18.00;99.90;;;;;;5087665;28;20830;-72
2022/07/30 06:36:58;;;;;;;13.20;8.95;;;18.00;99.90;;;;;;5086482;28;20845;-72
2022/07/30 06:39:24;;;;;;;13.23;8.60;;;18.10;99.90;;;;;;5088069;28;20444;-72
2022/07/30 06:41:49;;;;;;;11.50;8.30;;;18.10;99.90;;;;;;5087571;28;20395;-72
2022/07/30 06:44:15;;;;;;;12.02;8.40;;;18.20;99.90;;;;;;5087935;28;20943;-71
2022/07/30 06:46:40;;;;;;;12.57;8.40;;;18.20;99.90;;;;;;5087333;28;20521;-72
2022/07/30 06:49:06;;;;;;;12.37;8.57;;;18.30;99.90;;;;;;5087701;28;20421;-72
2022/07/30 06:51:31;;;;;;;13.75;7.88;;;18.40;99.90;;;;;;5087577;28;20390;-72
2022/07/30 06:53:57;;;;;;;14.73;8.70;;;18.50;99.90;;;;;;5064928;28;20858;-72
2022/07/30 06:56:23;;;;;;;14.68;9.05;;;18.50;99.90;;;;;;5066862;28;20426;-71
2022/07/30 06:58:48;;;;;;;11.73;9.23;;;18.60;99.90;;;;;;5062464;28;20433;-72
2022/07/30 07:01:14;;;;;;;15.77;9.90;;;18.60;99.90;;;;;;5067269;28;20486;-72
2022/07/30 07:03:39;;;;;;;15.05;9.35;;;18.70;99.90;;;;;;5070099;28;20758;-72
2022/07/30 07:06:05;;;;;;;14.33;9.00;;;18.80;99.90;;;;;;5071386;28;20467;-72
2022/07/30 07:08:31;;;;;;;14.48;9.70;;;18.90;99.90;;;;;;5068477;28;20419;-72
2022/07/30 07:10:56;;;;;;;15.03;9.37;;;18.90;99.90;;;;;;5068916;28;20493;-72
2022/07/30 07:13:22;;;;;;;12.83;9.00;;;19.00;99.90;;;;;;5070224;28;20411;-72
2022/07/30 07:15:48;;;;;;;15.25;9.30;;;19.10;99.90;;;;;;5071938;28;20399;-72
2022/07/30 07:18:14;;;;;;;14.10;8.67;;;19.20;99.90;;;;;;5071060;28;20428;-72
2022/07/30 07:20:39;;;;;;;11.65;8.80;;;19.30;99.90;;;;;;5064007;28;20483;-72
2022/07/30 07:23:05;;;;;;;13.82;8.73;;;19.30;99.90;;;;;;5071976;28;20399;-72
2022/07/30 07:25:31;;;;;;;16.33;9.00;;;19.40;99.90;;;;;;5078073;28;20899;-72
2022/07/30 07:27:56;;;;;;;15.10;8.37;;;19.50;99.90;;;;;;5067484;28;20917;-72
2022/07/30 07:30:22;;;;;;;13.90;8.50;;;19.60;99.90;;;;;;5070925;28;20445;-72
2022/07/30 07:32:47;;;;;;;13.37;8.53;;;19.60;99.90;;;;;;5069813;28;20963;-72
2022/07/30 07:35:13;;;;;;;13.93;9.38;;;19.60;99.90;;;;;;5062537;28;20477;-72
2022/07/30 07:37:39;;;;;;;12.27;8.37;;;19.70;99.90;;;;;;5066438;28;20432;-72
2022/07/30 07:40:05;;;;;;;14.57;8.77;;;19.70;99.90;;;;;;5073724;28;20397;-72
2022/07/30 07:42:31;;;;;;;15.43;9.10;;;19.80;99.90;;;;;;5068781;28;20415;-72
2022/07/30 07:44:56;;;;;;;13.10;9.57;;;19.80;99.90;;;;;;5069373;28;20977;-72
2022/07/30 07:47:22;;;;;;;15.00;9.23;;;19.90;99.90;;;;;;5058629;28;20407;-72
2022/07/30 07:49:48;;;;;;;12.93;9.05;;;19.90;99.90;;;;;;5081448;28;20757;-72
2022/07/30 07:52:13;;;;;;;12.70;8.67;;;20.00;99.90;;;;;;5066273;28;20415;-73
2022/07/30 07:54:39;;;;;;;12.32;9.25;;;20.10;99.90;;;;;;5068994;28;20419;-73
2022/07/30 07:57:06;;;;;;;14.47;9.20;;;20.10;99.90;;;;;;5078003;28;20420;-73
2022/07/30 07:59:33;;;;;;;12.93;9.40;;;20.10;99.90;;;;;;5068663;28;20432;-72
2022/07/30 08:01:59;;;;;;;13.30;9.30;;;20.20;99.90;;;;;;5077331;28;20477;-73
2022/07/30 08:04:24;;;;;;;12.00;8.53;;;20.30;99.90;;;;;;5071226;28;20491;-73
2022/07/30 08:06:50;;;;;;;13.38;7.63;;;20.40;99.90;;;;;;5070681;28;20503;-73
2022/07/30 08:09:15;;;;;;;12.57;7.83;;;20.40;99.90;;;;;;5084228;28;20465;-73
2022/07/30 08:11:41;;;;;;;11.50;8.60;;;20.50;99.90;;;;;;5083801;28;20433;-73
2022/07/30 08:14:07;;;;;;;12.85;8.32;;;20.60;99.90;;;;;;5073498;28;20481;-73
2022/07/30 08:16:32;;;;;;;13.90;9.07;;;20.60;99.90;;;;;;5083656;28;20520;-73
2022/07/30 08:18:58;;;;;;;11.10;8.53;;;20.70;99.90;;;;;;5082426;28;20434;-73
2022/07/30 08:21:24;;;;;;;13.75;8.13;;;20.70;99.90;;;;;;5090209;28;20745;-73
2022/07/30 08:23:49;;;;;;;10.43;7.03;;;20.80;99.90;;;;;;5078197;28;20422;-72
2022/07/30 08:26:15;;;;;;;10.25;6.68;;;20.90;99.90;;;;;;5076591;28;20453;-72
2022/07/30 08:28:42;;;;;;;9.47;7.43;;;21.00;99.90;;;;;;5070872;28;20469;-73
2022/07/30 08:31:07;;;;;;;11.18;6.65;;;21.10;99.90;;;;;;5069666;28;20950;-73
2022/07/30 08:33:33;;;;;;;10.10;6.97;;;21.20;99.90;;;;;;5072611;28;20444;-73
2022/07/30 08:36:00;;;;;;;12.00;6.70;;;21.30;99.90;;;;;;5090143;28;20390;-73
2022/07/30 08:38:25;;;;;;;9.40;5.75;;;21.40;99.90;;;;;;5073120;28;20468;-73
2022/07/30 08:40:54;;;;;;;9.93;5.47;;;21.50;99.90;;;;;;5068167;28;20489;-73
2022/07/30 08:43:20;;;;;;;8.53;5.93;;;21.50;99.90;;;;;;5073216;28;20427;-73
2022/07/30 08:45:46;;;;;;;9.07;5.88;;;21.70;99.90;;;;;;5080270;28;20452;-72
2022/07/30 08:48:14;;;;;;;11.40;6.25;;;21.80;99.90;;;;;;5076063;28;20415;-73
2022/07/30 08:50:43;;;;;;;10.75;5.68;;;21.80;99.90;;;;;;5071366;28;21107;-71
2022/07/30 08:53:09;;;;;;;12.63;6.45;;;21.90;99.90;;;;;;5072666;28;20479;-73
2022/07/30 08:55:35;;;;;;;8.93;5.38;;;22.00;99.90;;;;;;5078466;28;20890;-72
2022/07/30 08:58:01;;;;;;;12.30;5.78;;;22.10;99.90;;;;;;5080221;28;20482;-72
2022/07/30 09:00:27;;;;;;;11.52;5.93;;;22.20;99.80;;;;;;5066834;28;20453;-72
2022/07/30 09:02:53;;;;;;;10.25;5.53;;;22.30;99.50;;;;;;5077351;28;20478;-72
2022/07/30 09:05:18;;;;;;;11.18;5.05;;;22.30;99.90;;;;;;5087655;28;20576;-72
2022/07/30 09:07:44;;;;;;;7.80;4.87;;;22.50;99.80;;;;;;5070742;28;20412;-72
2022/07/30 09:10:10;;;;;;;7.35;4.20;;;22.60;99.30;;;;;;5071520;28;20404;-72
2022/07/30 09:12:45;;;;;;;9.03;5.37;;;22.70;99.30;;;;;;5073300;28;21042;-72
2022/07/30 09:15:15;;;;;;;9.68;5.18;;;22.80;98.80;;;;;;5068186;28;20427;-72
2022/07/30 09:17:45;;;;;;;9.52;5.03;;;22.90;98.60;;;;;;5080710;28;20419;-72
2022/07/30 09:20:11;;;;;;;9.00;4.60;;;23.00;98.80;;;;;;5082366;28;20497;-72
2022/07/30 09:22:50;;;;;;;8.18;4.30;;;23.10;98.20;;;;;;5071221;28;20828;-72
2022/07/30 09:25:37;;;;;;;8.68;4.80;;;23.20;98.20;;;;;;5073013;28;20434;-72
2022/07/30 09:28:04;;;;;;;9.75;4.97;;;23.30;98.20;;;;;;5068956;28;20971;-72
2022/07/30 09:30:52;;;;;;;9.00;5.03;;;23.30;97.90;;;;;;5078372;28;20498;-72
2022/07/30 09:33:45;;;;;;;8.60;3.80;;;23.20;97.70;;;;;;5061278;28;20994;-73
2022/07/30 09:36:14;;;;;;;11.73;4.53;;;23.60;97.80;;;;;;5066727;28;20506;-72
2022/07/30 09:38:54;;;;;;;12.23;4.70;;;23.80;97.40;;;;;;5068135;28;20471;-73
2022/07/30 09:41:40;;;;;;;8.02;4.30;;;24.10;97.20;;;;;;5068488;28;20412;-72
2022/07/30 09:44:06;;;;;;;6.67;3.60;;;24.40;97.00;;;;;;5077947;28;20487;-72
2022/07/30 09:46:44;;;;;;;9.10;3.92;;;24.40;96.90;;;;;;5070560;28;20470;-72
2022/07/30 09:49:20;;;;;;;10.43;3.65;;;24.30;97.00;;;;;;5066558;28;20436;-72
2022/07/30 09:51:47;;;;;;;8.70;3.90;;;24.30;97.30;;;;;;5088411;28;20398;-72
2022/07/30 09:54:13;;;;;;;;;;;24.60;97.70;;;;;;5072027;28;20112;-72
2022/07/30 09:56:38;;;;;;;;;;;24.90;96.10;;;;;;5069259;28;20438;-72
2022/07/30 09:59:05;;;;;;;;;;;24.90;95.90;;;;;;5069001;28;20378;-72
2022/07/30 10:01:50;;;;;;;;;;;24.80;96.00;;;;;;5069303;28;19931;-72
2022/07/30 10:04:23;;;;;;;;;;;24.60;96.00;;;;;;5070128;28;19938;-72
2022/07/30 10:06:48;;;;;;;;;;;24.40;96.10;;;;;;5070038;28;19920;-72
2022/07/30 10:09:23;;;;;;;;;;;24.20;95.60;;;;;;5069458;28;19920;-72
2022/07/30 10:11:49;;;;;;;;;;;24.10;95.90;;;;;;5066956;28;20003;-72
2022/07/30 10:14:14;;;;;;;;;;;24.00;95.40;;;;;;5068308;28;20019;-72
2022/07/30 10:16:40;;;;;;;;;;;24.00;96.00;;;;;;5069324;28;19965;-72
2022/07/30 10:19:05;;;;;;;;;;;24.00;95.60;;;;;;5088183;28;20337;-72
2022/07/30 10:21:31;;;;;;;;;;;24.00;95.40;;;;;;5090222;28;19931;-72
2022/07/30 10:23:57;;;;;;;;;;;24.30;96.10;;;;;;5069988;28;20303;-72
2022/07/30 10:26:23;;;;;;;7.13;2.58;;;24.90;95.80;;;;;;5067801;28;19925;-72
2022/07/30 10:28:49;;;;;;;4.35;1.85;;;25.70;95.10;;;;;;5069405;28;20047;-72
2022/07/30 10:31:15;;;;;;;5.15;2.03;;;26.30;94.90;;;;;;5066683;28;20033;-69
2022/07/30 10:33:41;;;;;;;6.38;1.92;;;26.80;94.50;;;;;;5071885;28;20081;-70
2022/07/30 10:36:10;;;;;;;5.93;2.30;;;27.40;93.20;;;;;;5068213;28;20041;-70
2022/07/30 10:38:38;;;;;;;12.90;2.60;;;27.60;92.30;;;;;;5074230;28;20122;-70
2022/07/30 10:41:29;;;;;;;7.80;2.30;;;27.60;91.40;;;;;;5061792;28;20432;-70
2022/07/30 10:44:14;;;;;;;6.97;2.70;;;27.60;92.00;;;;;;5057106;28;20399;-70
2022/07/30 10:47:02;;;;;;;6.60;2.20;;;27.30;90.90;;;;;;5081018;28;20403;-69
2022/07/30 10:49:28;;;;;;;6.60;2.42;;;27.00;90.90;;;;;;5066920;28;20431;-70
2022/07/30 10:51:54;;;;;;;5.85;1.90;;;26.80;91.10;;;;;;5067196;28;20832;-70
2022/07/30 10:54:44;;;;;;;4.93;1.90;;;26.80;91.10;;;;;;5068423;28;20396;-69
2022/07/30 10:57:14;;;;;;;4.30;2.33;;;26.80;90.90;;;;;;5064789;28;20834;-70
2022/07/30 10:59:48;;;;;;;6.05;2.30;;;27.00;91.10;;;;;;5048597;28;20467;-70
2022/07/30 11:02:15;;;;;;;2.35;1.38;;;27.30;88.60;;;;;;5050025;28;20041;-70
2022/07/30 11:04:41;;;;;;;3.17;1.85;;;27.70;89.90;;;;;;5067823;28;20033;-70
2022/07/30 11:07:22;;;;;;;5.82;2.10;;;28.20;89.20;;;;;;5063399;28;20033;-71
2022/07/30 11:09:56;;;;;;;4.72;1.70;;;28.60;85.30;;;;;;5068857;28;20414;-70
2022/07/30 11:12:41;;;;;;;3.83;2.03;;;28.80;86.60;;;;;;5060582;28;20419;-70
2022/07/30 11:15:08;;;;;;;5.50;1.60;;;29.10;84.40;;;;;;5063569;28;20033;-70
2022/07/30 11:18:03;;;;;;;3.38;1.45;;;29.20;85.50;;;;;;5072399;28;20422;-70
2022/07/30 11:20:30;;;;;;;5.60;1.65;;;29.00;84.30;;;;;;5069495;28;20403;-70
2022/07/30 11:23:27;;;;;;;4.75;1.70;;;28.50;83.60;;;;;;5058426;28;20826;-70
2022/07/30 11:25:53;;;;;;;6.03;1.70;;;28.20;83.20;;;;;;5056902;28;20438;-70
2022/07/30 11:28:45;;;;;;;6.82;1.80;;;28.20;83.40;;;;;;5066784;28;20510;-69
2022/07/30 11:31:31;;;;;;;5.93;1.70;;;28.00;84.40;;;;;;5067363;28;20880;-70
2022/07/30 11:34:26;;;;;;;6.60;2.05;;;27.80;85.60;;;;;;5086898;28;20406;-70
2022/07/30 11:37:16;;;;;;;6.30;1.93;;;27.90;84.60;;;;;;5073428;28;20546;-69
2022/07/30 11:39:54;;;;;;;5.50;1.67;;;27.90;84.60;;;;;;5081952;28;20421;-70
2022/07/30 11:42:26;;;;;;;7.05;2.00;;;27.90;85.20;;;;;;5080050;28;20409;-70
2022/07/30 11:44:52;;;;;;;3.95;1.65;;;27.90;85.70;;;;;;5077688;28;20418;-70
2022/07/30 11:47:18;;;;;;;5.82;1.95;;;28.00;86.00;;;;;;5081922;28;20040;-70
2022/07/30 11:49:47;;;;;;;4.80;1.80;;;27.90;84.60;;;;;;5071267;28;20454;-70
2022/07/30 11:52:21;;;;;;;;;;;27.70;84.70;;;;;;5073200;28;20574;-71
2022/07/30 11:54:50;;;;;;;;;;;27.80;83.40;;;;;;5073513;28;19920;-69
2022/07/30 11:57:16;;;;;;;;;;;27.70;83.90;;;;;;5071800;28;20006;-70
2022/07/30 11:59:54;;;;;;;;;;;27.60;83.50;;;;;;5073674;28;20023;-69
2022/07/30 12:02:25;;;;;;;;;;;27.50;84.70;;;;;;5073015;28;19921;-70
2022/07/30 12:04:50;;;;;;;;;;;27.60;84.40;;;;;;5065900;28;19943;-70
2022/07/30 12:07:24;;;;;;;4.80;1.48;;;27.70;84.80;;;;;;5071821;28;19921;-70
2022/07/30 12:09:49;;;;;;;3.83;1.30;;;28.10;85.90;;;;;;5080030;28;20517;-70
2022/07/30 12:12:23;;;;;;;;;;;28.70;85.30;;;;;;5089027;28;20043;-70
2022/07/30 12:14:48;;;;;;;;;;;28.90;81.50;;;;;;5081217;28;19920;-69
2022/07/30 12:17:14;;;;;;;;;;;28.70;82.20;;;;;;5091738;28;20294;-70
2022/07/30 12:19:46;;;;;;;;;;;28.70;82.30;;;;;;5073077;28;20046;-70
2022/07/30 12:22:11;;;;;;;;;;;28.80;82.10;;;;;;5073304;28;20283;-70
2022/07/30 12:24:37;;;;;;;;;;;28.60;80.70;;;;;;5070562;28;19927;-70
2022/07/30 12:27:04;;;;;;;;;;;28.10;80.40;;;;;;5069814;28;19973;-71
2022/07/30 12:29:31;;;;;;;;;;;27.70;81.00;;;;;;5078353;28;19920;-71
2022/07/30 12:31:56;;;;;;;;;;;27.50;81.50;;;;;;5073120;28;19928;-71
2022/07/30 12:34:23;;;;;;;;;;;27.20;82.00;;;;;;5071692;28;19970;-71
2022/07/30 12:36:49;;;;;;;;;;;27.10;82.40;;;;;;5084131;28;19921;-71
2022/07/30 12:39:19;;;;;;;;;;;27.10;82.40;;;;;;5071508;28;19927;-71
2022/07/30 12:41:48;;;;;;;;;;;27.00;82.70;;;;;;5075657;28;19920;-71
2022/07/30 12:44:32;;;;;;;;;;;26.90;82.30;;;;;;5072526;28;19964;-71
2022/07/30 12:46:58;;;;;;;;;;;26.90;83.00;;;;;;5080882;28;20262;-71
2022/07/30 12:49:28;;;;;;;6.87;2.20;;;27.30;83.30;;;;;;5083821;28;19965;-71
2022/07/30 12:51:54;;;;;;;;;;;27.70;83.10;;;;;;5069319;28;20102;-71
2022/07/30 12:54:20;;;;;;;;;;;28.00;81.50;;;;;;5083244;28;19920;-72
2022/07/30 12:56:58;;;;;;;;;;;28.00;80.60;;;;;;5071386;28;19989;-71
2022/07/30 12:59:24;;;;;;;;;;;27.90;81.10;;;;;;5073575;28;19920;-71
2022/07/30 13:01:51;;;;;;;;;;;27.80;81.00;;;;;;5090042;28;19975;-71